createdAt,value
2022-08-24T00:01:57.352Z,21.30
2022-08-24T00:04:28.270Z,20.50
2022-08-24T00:06:57.800Z,21.95
2022-08-24T00:09:26.314Z,22.25
2022-08-24T00:11:54.536Z,19.55
2022-08-24T00:14:22.895Z,22.92
2022-08-24T00:16:51.153Z,20.38
2022-08-24T00:19:19.337Z,22.52
2022-08-24T00:21:49.416Z,21.48
2022-08-24T00:24:17.644Z,23.15
2022-08-24T00:26:46.539Z,20.33
2022-08-24T00:29:15.433Z,22.00
2022-08-24T00:31:43.861Z,22.80
2022-08-24T00:34:14.034Z,21.20
2022-08-24T00:36:43.353Z,19.80
2022-08-24T00:39:13.267Z,17.42
2022-08-24T00:41:43.544Z,19.10
2022-08-24T00:44:13.881Z,17.53
2022-08-24T00:46:46.021Z,17.43
2022-08-24T00:49:20.590Z,18.30
2022-08-24T00:51:56.037Z,21.70
2022-08-24T00:54:28.457Z,19.75
2022-08-24T00:56:59.228Z,18.88
2022-08-24T00:59:29.500Z,21.17
2022-08-24T01:02:09.033Z,19.98
2022-08-24T01:04:49.091Z,21.10
2022-08-24T01:07:17.703Z,20.13
2022-08-24T01:09:47.884Z,18.63
2022-08-24T01:12:16.841Z,19.60
2022-08-24T01:14:45.298Z,19.10
2022-08-24T01:17:34.037Z,22.63
2022-08-24T01:20:08.275Z,21.02
2022-08-24T01:22:46.582Z,20.30
2022-08-24T01:25:16.458Z,17.48
2022-08-24T01:27:45.076Z,22.02
2022-08-24T01:30:17.381Z,22.03
2022-08-24T01:32:54.946Z,21.52
2022-08-24T01:35:23.563Z,18.95
2022-08-24T01:37:52.545Z,24.63
2022-08-24T01:40:23.003Z,24.00
2022-08-24T01:42:52.892Z,22.03
2022-08-24T01:45:21.879Z,25.52
2022-08-24T01:47:50.023Z,21.33
2022-08-24T01:50:18.126Z,22.42
2022-08-24T01:53:04.454Z,20.98
2022-08-24T01:55:35.761Z,23.45
2022-08-24T01:58:05.371Z,22.23
2022-08-24T02:00:34.703Z,21.98
2022-08-24T02:03:03.990Z,19.80
2022-08-24T02:05:32.580Z,20.67
2022-08-24T02:08:00.876Z,21.98
2022-08-24T02:10:29.356Z,22.23
2022-08-24T02:12:59.792Z,19.70
2022-08-24T02:15:29.680Z,21.15
2022-08-24T02:17:58.720Z,21.77
2022-08-24T02:20:27.543Z,19.73
2022-08-24T02:22:56.147Z,21.15
2022-08-24T02:25:25.289Z,20.17
2022-08-24T02:27:53.818Z,21.98
2022-08-24T02:30:23.617Z,21.45
2022-08-24T02:32:51.713Z,21.67
2022-08-24T02:35:20.136Z,20.38
2022-08-24T02:37:48.453Z,20.90
2022-08-24T02:40:16.834Z,20.05
2022-08-24T02:42:45.574Z,19.88
2022-08-24T02:45:13.901Z,19.50
2022-08-24T02:47:44.024Z,20.55
2022-08-24T02:50:15.529Z,20.30
2022-08-24T02:52:44.069Z,17.33
2022-08-24T02:55:14.710Z,17.60
2022-08-24T02:57:43.138Z,17.98
2022-08-24T03:00:14.932Z,15.95
2022-08-24T03:02:45.759Z,15.02
2022-08-24T03:05:14.493Z,18.25
2022-08-24T03:07:43.091Z,16.30
2022-08-24T03:10:11.803Z,21.42
2022-08-24T03:12:40.483Z,21.70
2022-08-24T03:15:11.523Z,20.75
2022-08-24T03:17:41.089Z,18.75
2022-08-24T03:25:12.382Z,19.40
2022-08-24T03:27:40.931Z,20.40
2022-08-24T03:30:12.970Z,20.08
2022-08-24T03:32:41.278Z,18.02
2022-08-24T03:35:10.656Z,17.00
2022-08-24T03:37:40.453Z,18.75
2022-08-24T03:40:22.489Z,20.15
2022-08-24T03:42:53.622Z,20.20
2022-08-24T03:45:23.013Z,17.38
2022-08-24T03:47:51.191Z,18.92
2022-08-24T03:50:20.473Z,16.75
2022-08-24T03:52:50.324Z,17.60
2022-08-24T03:55:19.191Z,17.77
2022-08-24T03:57:47.483Z,17.90
2022-08-24T04:00:16.160Z,15.80
2022-08-24T04:02:45.214Z,16.83
2022-08-24T04:05:14.465Z,17.10
2022-08-24T04:07:42.860Z,19.95
2022-08-24T04:10:14.626Z,20.52
2022-08-24T04:12:43.100Z,17.27
2022-08-24T04:15:12.480Z,18.63
2022-08-24T04:17:40.602Z,17.33
2022-08-24T04:20:10.000Z,16.88
2022-08-24T04:22:38.218Z,17.35
2022-08-24T04:25:09.274Z,18.50
2022-08-24T04:27:41.563Z,16.15
2022-08-24T04:30:14.151Z,18.13
2022-08-24T04:32:43.219Z,18.00
2022-08-24T04:35:12.045Z,19.00
2022-08-24T04:37:40.242Z,17.95
2022-08-24T04:40:09.902Z,15.27
2022-08-24T04:42:40.066Z,16.85
2022-08-24T04:45:10.628Z,17.40
2022-08-24T04:47:38.831Z,17.95
2022-08-24T04:50:08.312Z,20.15
2022-08-24T04:52:37.117Z,21.80
2022-08-24T04:55:07.616Z,17.75
2022-08-24T04:57:36.214Z,19.08
2022-08-24T05:00:09.440Z,20.48
2022-08-24T05:02:44.766Z,21.45
2022-08-24T05:05:13.550Z,17.35
2022-08-24T05:07:41.978Z,17.33
2022-08-24T05:10:11.678Z,20.13
2022-08-24T05:12:40.289Z,20.17
2022-08-24T05:15:10.964Z,19.15
2022-08-24T05:17:41.129Z,17.20
2022-08-24T05:20:12.047Z,16.85
2022-08-24T05:22:40.435Z,18.45
2022-08-24T05:25:09.448Z,17.65
2022-08-24T05:27:38.030Z,16.95
2022-08-24T05:30:07.568Z,18.00
2022-08-24T05:32:37.440Z,16.27
2022-08-24T05:35:09.511Z,16.02
2022-08-24T05:37:38.595Z,17.08
2022-08-24T05:40:10.347Z,15.10
2022-08-24T05:42:39.104Z,16.40
2022-08-24T05:45:08.860Z,17.33
2022-08-24T05:47:38.615Z,15.32
2022-08-24T05:50:08.243Z,15.95
2022-08-24T05:52:36.730Z,16.55
2022-08-24T05:55:05.815Z,16.05
2022-08-24T05:57:36.011Z,13.75
2022-08-24T06:00:06.690Z,15.50
2022-08-24T06:02:35.248Z,15.63
2022-08-24T06:05:05.164Z,16.23
2022-08-24T06:07:34.446Z,16.33
2022-08-24T06:10:20.196Z,15.57
2022-08-24T06:12:51.060Z,14.68
2022-08-24T06:15:19.200Z,15.40
2022-08-24T06:17:47.383Z,15.52
2022-08-24T06:20:17.468Z,14.27
2022-08-24T06:22:45.503Z,15.30
2022-08-24T06:25:31.442Z,14.25
2022-08-24T06:28:00.631Z,13.32
2022-08-24T06:30:30.615Z,15.50
2022-08-24T06:33:00.744Z,13.43
2022-08-24T06:35:30.577Z,13.00
2022-08-24T06:37:59.067Z,12.88
2022-08-24T06:40:28.677Z,13.48
2022-08-24T06:42:57.369Z,12.45
2022-08-24T06:45:25.657Z,14.55
2022-08-24T06:47:53.941Z,15.50
2022-08-24T06:50:24.679Z,16.55
2022-08-24T06:52:54.452Z,16.65
2022-08-24T06:55:22.576Z,14.27
2022-08-24T06:57:52.654Z,12.82
2022-08-24T07:00:21.950Z,13.75
2022-08-24T07:02:50.233Z,14.07
2022-08-24T07:05:18.790Z,14.50
2022-08-24T07:07:47.093Z,14.45
2022-08-24T07:10:16.767Z,15.20
2022-08-24T07:12:50.842Z,14.82
2022-08-24T07:15:19.537Z,13.45
2022-08-24T07:17:47.739Z,14.57
2022-08-24T07:20:17.613Z,14.75
2022-08-24T07:22:46.734Z,17.52
2022-08-24T07:25:16.544Z,16.02
2022-08-24T07:27:44.871Z,13.25
2022-08-24T07:30:28.202Z,11.65
2022-08-24T07:32:57.912Z,15.93
2022-08-24T07:35:26.827Z,15.65
2022-08-24T07:37:55.155Z,15.93
2022-08-24T07:40:25.514Z,15.73
2022-08-24T07:42:55.142Z,14.53
2022-08-24T07:45:24.000Z,15.45
2022-08-24T07:47:55.435Z,16.17
2022-08-24T07:50:24.277Z,15.30
2022-08-24T07:52:52.853Z,14.57
2022-08-24T07:55:21.731Z,14.63
2022-08-24T07:57:51.823Z,15.52
2022-08-24T08:00:21.346Z,14.48
2022-08-24T08:02:50.783Z,15.10
2022-08-24T08:05:24.578Z,16.15
2022-08-24T08:07:53.169Z,13.95
2022-08-24T08:10:23.429Z,13.18
2022-08-24T08:12:53.085Z,14.48
2022-08-24T08:15:21.491Z,12.70
2022-08-24T08:17:55.780Z,13.15
2022-08-24T08:20:24.874Z,12.05
2022-08-24T08:23:10.428Z,12.88
2022-08-24T08:25:38.931Z,12.88
2022-08-24T08:28:25.199Z,13.65
2022-08-24T08:30:54.605Z,11.10
2022-08-24T08:33:23.158Z,11.32
2022-08-24T08:35:52.499Z,10.30
2022-08-24T08:38:21.445Z,11.45
2022-08-24T08:40:59.637Z,10.93
2022-08-24T08:43:42.051Z,10.68
2022-08-24T08:46:23.374Z,10.23
2022-08-24T08:49:25.196Z,12.73
2022-08-24T08:52:08.752Z,13.35
2022-08-24T08:54:46.067Z,12.38
2022-08-24T08:57:27.370Z,11.98
2022-08-24T09:00:10.648Z,11.10
2022-08-24T09:03:18.646Z,13.02
2022-08-24T09:05:57.617Z,10.63
2022-08-24T09:08:37.013Z,11.45
2022-08-24T09:11:09.536Z,12.40
2022-08-24T09:13:56.220Z,12.10
2022-08-24T09:16:33.336Z,12.68
2022-08-24T09:19:16.313Z,11.60
2022-08-24T09:21:54.473Z,9.68
2022-08-24T09:24:36.679Z,10.15
2022-08-24T09:27:14.397Z,8.45
2022-08-24T09:29:51.715Z,9.77
2022-08-24T09:32:55.987Z,10.20
2022-08-24T09:35:34.012Z,8.15
2022-08-24T09:38:09.368Z,9.50
2022-08-24T09:40:42.829Z,9.80
2022-08-24T09:43:35.156Z,8.70
2022-08-24T09:46:22.351Z,8.60
2022-08-24T09:49:20.711Z,10.45
2022-08-24T09:52:03.014Z,9.55
2022-08-24T09:55:15.100Z,10.43
2022-08-24T09:58:00.603Z,11.07
2022-08-24T10:00:34.536Z,10.07
2022-08-24T10:03:15.608Z,9.18
2022-08-24T10:06:08.960Z,11.07
2022-08-24T10:08:54.713Z,9.13
2022-08-24T10:11:27.290Z,9.50
2022-08-24T10:14:03.846Z,9.93
2022-08-24T10:16:41.322Z,9.80
2022-08-24T10:19:20.426Z,11.00
2022-08-24T10:21:57.294Z,10.10
2022-08-24T10:24:51.837Z,9.65
2022-08-24T10:27:28.103Z,9.48
2022-08-24T10:30:25.903Z,9.65
2022-08-24T10:33:10.402Z,9.60
2022-08-24T10:35:46.519Z,8.68
2022-08-24T10:39:02.756Z,8.68
2022-08-24T10:42:10.756Z,8.38
2022-08-24T10:44:51.080Z,8.93
2022-08-24T10:47:27.102Z,10.27
2022-08-24T10:50:22.131Z,11.60
2022-08-24T10:53:23.035Z,10.38
2022-08-24T10:56:01.742Z,10.18
2022-08-24T10:58:43.869Z,11.98
2022-08-24T11:01:19.097Z,11.40
2022-08-24T11:03:53.632Z,9.73
2022-08-24T11:06:24.446Z,8.95
2022-08-24T11:08:55.252Z,9.93
2022-08-24T11:11:28.959Z,8.00
2022-08-24T11:14:00.390Z,10.82
2022-08-24T11:16:32.587Z,11.80
2022-08-24T11:19:02.467Z,10.48
2022-08-24T11:21:40.959Z,10.85
2022-08-24T11:24:13.167Z,11.90
2022-08-24T11:26:55.835Z,11.00
2022-08-24T11:29:24.576Z,10.93
2022-08-24T11:31:53.936Z,12.05
2022-08-24T11:34:33.307Z,11.35
2022-08-24T11:37:02.390Z,10.55
2022-08-24T11:39:34.688Z,10.65
2022-08-24T11:42:14.885Z,11.95
2022-08-24T11:44:49.976Z,9.70
2022-08-24T11:47:46.097Z,10.63
2022-08-24T11:50:26.093Z,11.32
2022-08-24T11:53:12.512Z,9.48
2022-08-24T11:55:51.957Z,12.05
2022-08-24T11:58:37.305Z,10.55
2022-08-24T12:01:10.101Z,9.60
2022-08-24T12:03:48.331Z,9.15
2022-08-24T12:06:32.449Z,9.65
2022-08-24T12:09:06.029Z,12.55
2022-08-24T12:11:40.952Z,13.40
2022-08-24T12:14:17.337Z,11.57
2022-08-24T12:16:51.339Z,10.07
2022-08-24T12:19:23.670Z,9.10
2022-08-24T12:21:58.063Z,8.52
2022-08-24T12:24:31.841Z,6.80
2022-08-24T12:27:04.125Z,7.93
2022-08-24T12:29:38.694Z,9.10
2022-08-24T12:32:12.005Z,7.45
2022-08-24T12:34:49.981Z,8.95
2022-08-24T12:37:23.389Z,12.45
2022-08-24T12:39:57.155Z,12.40
2022-08-24T12:42:34.682Z,9.25
2022-08-24T12:45:08.371Z,8.80
2022-08-24T12:47:40.901Z,11.48
2022-08-24T12:50:12.989Z,11.00
2022-08-24T12:53:24.079Z,9.35
2022-08-24T12:56:18.318Z,9.10
2022-08-24T12:59:09.156Z,8.73
2022-08-24T13:01:43.512Z,7.43
2022-08-24T13:04:19.811Z,8.25
2022-08-24T13:06:56.343Z,8.75
2022-08-24T13:09:33.235Z,8.48
2022-08-24T13:12:41.874Z,9.05
2022-08-24T13:15:43.605Z,9.25
2022-08-24T13:18:51.838Z,9.10
2022-08-24T13:21:48.927Z,12.05
2022-08-24T13:24:44.671Z,11.27
2022-08-24T13:27:49.042Z,9.68
2022-08-24T13:30:25.295Z,9.75
2022-08-24T13:33:01.145Z,8.48
2022-08-24T13:35:53.929Z,8.13
2022-08-24T13:39:04.031Z,8.20
2022-08-24T13:41:55.233Z,7.93
2022-08-24T13:47:07.840Z,7.63
2022-08-24T13:49:47.233Z,9.10
2022-08-24T13:52:23.065Z,8.30
2022-08-24T13:55:07.079Z,7.97
2022-08-24T13:57:42.947Z,8.30
2022-08-24T14:00:30.402Z,8.63
2022-08-24T14:03:06.869Z,8.27
2022-08-24T14:05:37.165Z,8.48
2022-08-24T14:08:13.403Z,8.68
2022-08-24T14:10:53.753Z,8.65
2022-08-24T14:16:15.185Z,8.43
2022-08-24T14:18:57.512Z,8.80
2022-08-24T14:21:37.280Z,9.10
2022-08-24T14:24:10.088Z,8.35
2022-08-24T14:27:08.326Z,6.72
2022-08-24T14:29:43.338Z,9.00
2022-08-24T14:32:29.590Z,7.38
2022-08-24T14:35:21.031Z,7.05
2022-08-24T14:38:05.784Z,8.23
2022-08-24T14:43:30.629Z,8.63
2022-08-24T14:46:08.936Z,7.60
2022-08-24T14:48:43.711Z,9.88
2022-08-24T14:51:17.559Z,10.00
2022-08-24T14:53:52.950Z,8.88
2022-08-24T14:56:29.964Z,7.80
2022-08-24T14:59:05.116Z,8.20
2022-08-24T15:01:42.071Z,8.27
2022-08-24T15:04:30.707Z,7.57
2022-08-24T15:07:28.474Z,8.45
2022-08-24T15:09:58.614Z,8.45
2022-08-24T15:12:39.601Z,7.65
2022-08-24T15:15:12.796Z,7.43
2022-08-24T15:17:53.194Z,7.60
2022-08-24T15:20:23.057Z,7.60
2022-08-24T15:22:56.454Z,7.20
2022-08-24T15:25:34.089Z,7.28
2022-08-24T15:28:11.398Z,7.53
2022-08-24T15:30:41.960Z,7.78
2022-08-24T15:35:48.944Z,7.03
2022-08-24T15:38:19.693Z,7.72
2022-08-24T15:40:53.601Z,8.95
2022-08-24T15:43:22.656Z,8.63
2022-08-24T15:45:52.393Z,8.98
2022-08-24T15:48:25.976Z,7.97
2022-08-24T15:50:55.951Z,7.75
2022-08-24T15:53:32.922Z,7.65
2022-08-24T15:56:01.932Z,8.50
2022-08-24T15:58:35.251Z,8.50
2022-08-24T16:01:40.938Z,9.93
2022-08-24T16:04:12.788Z,9.35
2022-08-24T16:06:45.220Z,8.73
2022-08-24T16:09:33.891Z,8.90
2022-08-24T16:12:04.837Z,10.38
2022-08-24T16:14:35.771Z,8.55
2022-08-24T16:17:21.764Z,7.90
2022-08-24T16:19:53.743Z,8.93
2022-08-24T16:22:34.498Z,8.75
2022-08-24T16:25:14.963Z,8.85
2022-08-24T16:28:07.855Z,8.63
2022-08-24T16:30:45.430Z,8.32
2022-08-24T16:33:43.298Z,8.85
2022-08-24T16:36:16.691Z,9.02
2022-08-24T16:38:49.013Z,10.25
2022-08-24T16:41:19.069Z,9.15
2022-08-24T16:43:47.566Z,10.35
2022-08-24T16:46:21.218Z,9.20
2022-08-24T16:48:49.861Z,8.52
2022-08-24T16:51:19.750Z,10.32
2022-08-24T16:53:48.066Z,10.15
2022-08-24T16:56:17.031Z,9.90
2022-08-24T16:58:47.562Z,9.60
2022-08-24T17:01:16.271Z,9.82
2022-08-24T17:03:44.647Z,10.27
2022-08-24T17:06:13.422Z,10.52
2022-08-24T17:08:42.990Z,9.48
2022-08-24T17:11:11.579Z,10.10
2022-08-24T17:13:49.280Z,8.15
2022-08-24T17:16:19.328Z,10.95
2022-08-24T17:18:47.514Z,10.50
2022-08-24T17:21:16.103Z,9.68
2022-08-24T17:23:46.095Z,10.57
2022-08-24T17:26:20.553Z,9.48
2022-08-24T17:28:52.694Z,10.27
2022-08-24T17:31:21.120Z,10.75
2022-08-24T17:33:49.308Z,10.18
2022-08-24T17:36:20.157Z,10.68
2022-08-24T17:38:56.385Z,10.27
2022-08-24T17:41:25.992Z,10.27
2022-08-24T17:43:54.726Z,10.60
2022-08-24T17:46:24.234Z,9.40
2022-08-24T17:48:52.865Z,10.88
2022-08-24T17:51:21.330Z,11.57
2022-08-24T17:53:49.891Z,9.13
2022-08-24T17:56:20.663Z,6.65
2022-08-24T17:59:06.804Z,4.97
2022-08-24T18:01:35.249Z,5.05
2022-08-24T18:04:04.005Z,5.05
2022-08-24T18:06:32.795Z,4.00
2022-08-24T18:09:02.878Z,3.30
2022-08-24T18:11:32.453Z,3.25
2022-08-24T18:14:01.692Z,3.30
2022-08-24T18:16:30.428Z,3.50
2022-08-24T18:18:58.754Z,3.25
2022-08-24T18:21:27.081Z,2.80
2022-08-24T18:23:56.129Z,3.38
2022-08-24T18:26:28.481Z,3.58
2022-08-24T18:29:02.527Z,4.18
2022-08-24T18:31:31.945Z,3.88
2022-08-24T18:34:00.322Z,3.80
2022-08-24T18:36:29.012Z,4.50
2022-08-24T18:38:57.391Z,4.10
2022-08-24T18:41:27.606Z,4.03
2022-08-24T18:43:55.879Z,4.35
2022-08-24T18:46:26.152Z,3.95
2022-08-24T18:48:54.534Z,4.57
2022-08-24T18:51:24.183Z,4.78
2022-08-24T18:54:01.207Z,3.72
2022-08-24T18:56:29.428Z,3.65
2022-08-24T18:58:58.323Z,3.67
2022-08-24T19:01:28.880Z,2.58
2022-08-24T19:03:57.639Z,2.83
2022-08-24T19:06:26.248Z,6.20
2022-08-24T19:08:54.467Z,4.07
2022-08-24T19:11:24.940Z,3.60
2022-08-24T19:13:53.389Z,3.50
2022-08-24T19:16:21.471Z,2.95
2022-08-24T19:18:52.291Z,3.25
2022-08-24T19:21:20.732Z,5.07
2022-08-24T19:23:49.220Z,4.68
2022-08-24T19:26:18.608Z,4.32
2022-08-24T19:28:46.899Z,2.80
2022-08-24T19:31:23.563Z,5.72
2022-08-24T19:33:53.978Z,7.05
2022-08-24T19:36:22.507Z,3.45
2022-08-24T19:38:50.844Z,2.53
2022-08-24T19:41:21.445Z,3.40
2022-08-24T19:44:10.543Z,3.13
2022-08-24T19:46:43.148Z,3.28
2022-08-24T19:49:13.014Z,3.17
2022-08-24T19:51:41.136Z,2.72
2022-08-24T19:54:09.619Z,2.78
2022-08-24T19:56:37.826Z,2.65
2022-08-24T19:59:09.193Z,3.30
2022-08-24T20:01:38.181Z,3.03
2022-08-24T20:04:07.676Z,2.60
2022-08-24T20:06:39.169Z,2.83
2022-08-24T20:09:08.509Z,2.40
2022-08-24T20:11:39.062Z,2.67
2022-08-24T20:14:07.299Z,2.63
2022-08-24T20:16:38.351Z,3.20
2022-08-24T20:19:07.277Z,3.08
2022-08-24T20:21:35.912Z,2.95
2022-08-24T20:24:06.488Z,4.28
2022-08-24T20:26:39.326Z,5.70
2022-08-24T20:29:07.856Z,6.45
2022-08-24T20:31:36.610Z,8.43
2022-08-24T20:34:04.987Z,6.45
2022-08-24T20:36:36.587Z,4.35
2022-08-24T20:39:08.491Z,3.10
2022-08-24T20:41:37.346Z,4.80
2022-08-24T20:44:06.036Z,3.50
2022-08-24T20:46:34.186Z,2.72
2022-08-24T20:49:03.158Z,3.03
2022-08-24T20:51:31.370Z,2.72
2022-08-24T20:54:02.137Z,3.30
2022-08-24T20:56:33.388Z,3.40
2022-08-24T20:59:02.750Z,7.68
2022-08-24T21:01:31.097Z,6.60
2022-08-24T21:04:04.723Z,7.45
2022-08-24T21:06:33.906Z,29.83
2022-08-24T21:09:02.630Z,16.90
2022-08-24T21:11:33.097Z,15.98
2022-08-24T21:14:01.531Z,23.45
2022-08-24T21:16:30.173Z,19.85
2022-08-24T21:18:58.455Z,19.15
2022-08-24T21:21:28.209Z,19.25
2022-08-24T21:23:56.464Z,17.10
2022-08-24T21:26:26.640Z,14.90
2022-08-24T21:28:58.088Z,5.78
2022-08-24T21:31:26.873Z,4.97
2022-08-24T21:34:13.106Z,4.47
2022-08-24T21:36:41.986Z,16.70
2022-08-24T21:39:11.107Z,22.35
2022-08-24T21:41:39.658Z,16.38
2022-08-24T21:44:09.322Z,8.10
2022-08-24T21:46:39.416Z,9.63
2022-08-24T21:49:11.823Z,6.70
2022-08-24T21:51:41.246Z,9.55
2022-08-24T21:54:09.585Z,13.32
2022-08-24T21:56:37.784Z,9.60
2022-08-24T21:59:06.999Z,13.50
2022-08-24T22:01:38.781Z,13.52
2022-08-24T22:04:08.183Z,10.50
2022-08-24T22:06:36.586Z,8.20
2022-08-24T22:09:05.225Z,6.20
2022-08-24T22:11:33.622Z,5.45
2022-08-24T22:14:02.975Z,6.20
2022-08-24T22:16:31.323Z,6.15
2022-08-24T22:19:04.185Z,4.90
2022-08-24T22:21:36.078Z,6.15
2022-08-24T22:24:05.155Z,5.28
2022-08-24T22:26:33.799Z,4.90
2022-08-24T22:29:02.232Z,5.57
2022-08-24T22:31:33.540Z,5.07
2022-08-24T22:34:05.538Z,5.25
2022-08-24T22:36:34.153Z,5.13
2022-08-24T22:39:02.466Z,5.00
2022-08-24T22:41:32.492Z,5.45
2022-08-24T22:44:18.400Z,5.68
2022-08-24T22:46:47.031Z,5.10
2022-08-24T22:49:17.366Z,5.35
2022-08-24T22:51:46.360Z,4.80
2022-08-24T22:54:14.714Z,4.88
2022-08-24T22:56:45.178Z,5.13
2022-08-24T22:59:16.883Z,4.20
2022-08-24T23:01:46.988Z,5.28
2022-08-24T23:04:18.715Z,4.45
2022-08-24T23:06:47.445Z,4.70
2022-08-24T23:09:15.851Z,4.20
2022-08-24T23:11:45.256Z,11.20
2022-08-24T23:14:14.912Z,7.63
2022-08-24T23:16:47.829Z,8.32
2022-08-24T23:19:36.521Z,6.63
2022-08-24T23:22:05.306Z,6.43
2022-08-24T23:24:34.132Z,7.07
2022-08-24T23:27:03.277Z,6.82
2022-08-24T23:29:31.695Z,8.02
2022-08-24T23:32:00.341Z,9.27
2022-08-24T23:34:30.394Z,6.55
2022-08-24T23:36:58.981Z,5.90
2022-08-24T23:39:27.996Z,5.05
2022-08-24T23:41:56.354Z,4.93
2022-08-24T23:44:27.749Z,4.65
2022-08-24T23:46:56.577Z,4.43
2022-08-24T23:49:26.067Z,5.38
2022-08-24T23:51:56.313Z,6.60
2022-08-24T23:54:25.073Z,6.82
2022-08-24T23:56:54.269Z,6.13
2022-08-24T23:59:25.013Z,6.10
